createdAt,value
2023-01-09T00:10:01.657Z,7.91
2023-01-09T00:20:07.725Z,7.90
2023-01-09T00:30:11.800Z,7.97
2023-01-09T00:40:18.227Z,8.07
2023-01-09T00:50:24.333Z,8.04
2023-01-09T01:00:28.321Z,8.12
2023-01-09T01:10:31.057Z,8.20
2023-01-09T01:20:35.507Z,7.96
2023-01-09T01:30:39.855Z,8.07
2023-01-09T01:40:43.998Z,8.33
2023-01-09T01:50:49.607Z,8.13
2023-01-09T02:00:54.213Z,8.00
2023-01-09T02:10:57.709Z,7.78
2023-01-09T02:21:05.768Z,7.49
2023-01-09T02:31:15.387Z,7.68
2023-01-09T02:41:22.901Z,7.62
2023-01-09T02:51:36.475Z,7.50
2023-01-09T03:01:46.433Z,7.47
2023-01-09T03:11:54.533Z,7.48
2023-01-09T03:21:58.292Z,7.43
2023-01-09T03:32:02.339Z,7.40
2023-01-09T03:42:05.535Z,7.37
2023-01-09T03:52:09.551Z,7.37
2023-01-09T04:02:12.366Z,7.27
2023-01-09T04:12:16.571Z,7.10
2023-01-09T04:22:20.395Z,6.97
2023-01-09T04:32:24.471Z,6.82
2023-01-09T04:42:27.150Z,6.66
2023-01-09T04:52:31.338Z,6.60
2023-01-09T05:02:33.988Z,6.49
2023-01-09T05:12:39.677Z,6.28
2023-01-09T05:22:42.405Z,6.23
2023-01-09T05:32:46.568Z,6.17
2023-01-09T05:42:49.331Z,6.09
2023-01-09T05:52:53.510Z,5.99
2023-01-09T06:02:56.226Z,5.89
2023-01-09T06:13:00.422Z,5.78
2023-01-09T06:23:08.663Z,5.89
2023-01-09T06:33:12.718Z,6.11
2023-01-09T06:43:15.513Z,6.19
2023-01-09T06:53:19.586Z,6.42
2023-01-09T07:03:22.606Z,6.68
2023-01-09T07:13:26.656Z,6.59
2023-01-09T07:23:29.340Z,6.46
2023-01-09T07:33:33.348Z,6.49
2023-01-09T07:43:36.875Z,6.46
2023-01-09T07:53:41.076Z,6.63
2023-01-09T08:03:43.804Z,6.73
2023-01-09T08:13:47.833Z,6.68
2023-01-09T08:23:50.493Z,7.09
2023-01-09T08:33:54.584Z,7.13
2023-01-09T08:44:15.058Z,6.90
2023-01-09T08:54:19.123Z,6.89
2023-01-09T09:04:21.845Z,6.98
2023-01-09T09:14:43.791Z,7.18
2023-01-09T09:24:46.470Z,7.28
2023-01-09T09:34:50.595Z,7.50
2023-01-09T09:45:07.678Z,7.72
2023-01-09T09:55:18.531Z,7.83
2023-01-09T10:05:26.761Z,8.07
2023-01-09T10:15:42.268Z,7.89
2023-01-09T10:25:49.945Z,7.99
2023-01-09T10:36:13.511Z,8.24
2023-01-09T10:46:20.439Z,8.20
2023-01-09T10:56:27.489Z,8.75
2023-01-09T11:06:38.136Z,8.81
2023-01-09T11:16:51.594Z,8.74
2023-01-09T11:26:55.736Z,8.85
2023-01-09T11:37:07.247Z,9.02
2023-01-09T11:47:26.689Z,8.74
2023-01-09T11:57:31.441Z,8.64
2023-01-09T12:07:49.096Z,8.65
2023-01-09T12:18:23.642Z,8.48
2023-01-09T12:28:44.403Z,8.36
2023-01-09T12:38:55.581Z,8.38
2023-01-09T12:49:19.642Z,8.39
2023-01-09T12:59:35.884Z,8.49
2023-01-09T13:09:44.589Z,8.43
2023-01-09T13:19:48.887Z,8.81
2023-01-09T13:29:55.837Z,8.57
2023-01-09T13:40:02.050Z,8.34
2023-01-09T13:50:27.327Z,8.22
2023-01-09T14:00:51.128Z,8.22
2023-01-09T14:10:57.691Z,8.19
2023-01-09T14:21:04.095Z,8.16
2023-01-09T14:31:09.676Z,8.20
2023-01-09T14:41:42.679Z,8.16
2023-01-09T14:51:47.946Z,8.12
2023-01-09T15:01:56.580Z,8.16
2023-01-09T15:12:05.296Z,8.08
2023-01-09T15:22:23.071Z,7.82
2023-01-09T15:32:28.629Z,7.83
2023-01-09T15:42:56.317Z,7.71
2023-01-09T15:52:59.997Z,7.77
2023-01-09T16:03:15.754Z,7.75
2023-01-09T16:13:18.765Z,7.65
2023-01-09T16:23:25.524Z,7.64
2023-01-09T16:33:30.338Z,7.73
2023-01-09T16:43:34.416Z,7.62
2023-01-09T16:53:37.119Z,7.56
2023-01-09T17:03:43.670Z,7.50
2023-01-09T17:13:47.922Z,7.52
2023-01-09T17:24:12.946Z,7.55
2023-01-09T17:34:15.645Z,7.49
2023-01-09T17:44:19.768Z,7.39
2023-01-09T17:54:22.562Z,7.33
2023-01-09T18:04:26.609Z,7.40
2023-01-09T18:14:29.439Z,7.56
2023-01-09T18:24:33.559Z,7.42
2023-01-09T18:34:36.398Z,7.47
2023-01-09T18:44:40.483Z,7.52
2023-01-09T18:54:43.585Z,7.45
2023-01-09T19:04:47.733Z,7.42
2023-01-09T19:14:50.656Z,7.27
2023-01-09T19:24:54.752Z,7.10
2023-01-09T19:34:57.489Z,7.14
2023-01-09T19:45:01.529Z,7.19
2023-01-09T19:55:04.269Z,7.15
2023-01-09T20:05:09.567Z,6.93
2023-01-09T20:15:14.842Z,6.78
2023-01-09T20:25:18.962Z,6.72
2023-01-09T20:35:22.949Z,6.56
2023-01-09T20:45:27.180Z,6.55
2023-01-09T20:55:29.974Z,6.48
2023-01-09T21:05:33.985Z,6.50
2023-01-09T21:15:38.788Z,6.39
2023-01-09T21:25:44.443Z,6.36
2023-01-09T21:35:53.162Z,6.34
2023-01-09T21:46:20.933Z,6.40
2023-01-09T21:56:23.874Z,6.38
2023-01-09T22:06:29.251Z,6.59
2023-01-09T22:16:32.247Z,6.61
2023-01-09T22:26:36.452Z,6.56
2023-01-09T22:36:39.321Z,6.58
2023-01-09T22:46:43.401Z,6.65
2023-01-09T22:56:46.084Z,6.65
2023-01-09T23:06:50.992Z,6.46
2023-01-09T23:16:53.956Z,6.29
2023-01-09T23:26:58.600Z,6.30
2023-01-09T23:37:01.318Z,6.24
2023-01-09T23:47:06.254Z,6.23
2023-01-09T23:57:08.946Z,6.17
